Time;durP1;ratioP1;P1;durP2;ratioP2;P2;SDS_P1;SDS_P2;PMS_P1;PMS_P2;Temp;Humidity;BMP_temperature;BMP_pressure;BME280_temperature;BME280_humidity;BME280_pressure;Samples;Min_cycle;Max_cycle;Signal;HPM_P1;HPM_P2
2022/05/04 00:00:09;;;;;;;1.80;1.70;;;19.90;48.40;;;;;;5053417;28;20458;-92
2022/05/04 00:02:36;;;;;;;2.50;2.03;;;19.90;48.40;;;;;;5052865;28;20196;-91
2022/05/04 00:05:02;;;;;;;2.00;1.80;;;19.90;48.50;;;;;;5053052;28;20582;-91
2022/05/04 00:07:28;;;;;;;2.83;1.90;;;19.90;48.40;;;;;;5053320;28;20169;-92
2022/05/04 00:09:55;;;;;;;1.87;1.77;;;19.80;48.40;;;;;;5052932;28;20173;-91
2022/05/04 00:12:21;;;;;;;1.67;1.57;;;19.80;48.40;;;;;;5053498;28;20256;-92
2022/05/04 00:14:47;;;;;;;1.77;1.60;;;19.80;48.40;;;;;;5055682;28;20555;-92
2022/05/04 00:17:13;;;;;;;3.33;1.80;;;19.80;48.40;;;;;;5055930;28;20170;-92
2022/05/04 00:19:39;;;;;;;1.80;1.70;;;19.80;48.40;;;;;;5056377;28;20254;-92
2022/05/04 00:22:04;;;;;;;1.60;1.50;;;19.80;48.40;;;;;;5057572;28;20298;-92
2022/05/04 00:24:30;;;;;;;2.00;1.80;;;19.80;48.40;;;;;;5058493;28;20271;-92
2022/05/04 00:26:56;;;;;;;1.83;1.73;;;19.80;48.40;;;;;;5057905;28;20402;-91
2022/05/04 00:29:22;;;;;;;1.70;1.60;;;19.70;48.40;;;;;;5050211;28;20639;-92
2022/05/04 00:31:47;;;;;;;2.80;1.60;;;19.70;48.40;;;;;;5054339;28;20180;-91
2022/05/04 00:34:13;;;;;;;2.00;1.80;;;19.70;48.40;;;;;;5054800;28;20189;-92
2022/05/04 00:36:38;;;;;;;1.80;1.60;;;19.70;48.40;;;;;;5054400;28;20168;-92
2022/05/04 00:39:04;;;;;;;1.60;1.50;;;19.70;48.40;;;;;;5052620;28;20471;-92
2022/05/04 00:41:29;;;;;;;2.10;1.70;;;19.70;48.40;;;;;;5053832;28;20297;-92
2022/05/04 00:43:58;;;;;;;1.57;1.47;;;19.70;48.40;;;;;;5046174;28;20547;-92
2022/05/04 00:46:24;;;;;;;2.00;1.60;;;19.70;48.40;;;;;;5056263;28;20164;-91
2022/05/04 00:48:50;;;;;;;1.60;1.47;;;19.60;48.40;;;;;;5055657;28;20177;-91
2022/05/04 00:51:16;;;;;;;2.07;1.53;;;19.60;48.40;;;;;;5056084;28;20186;-91
2022/05/04 00:53:43;;;;;;;1.60;1.50;;;19.60;48.40;;;;;;5055424;28;20343;-91
2022/05/04 00:56:10;;;;;;;1.70;1.60;;;19.60;48.40;;;;;;5056205;28;20176;-91
2022/05/04 00:58:55;;;;;;;2.23;1.60;;;19.60;48.40;;;;;;5056178;28;20282;-91
2022/05/04 01:01:26;;;;;;;2.23;1.70;;;19.60;48.40;;;;;;5055104;28;20602;-91
2022/05/04 01:03:53;;;;;;;1.90;1.70;;;19.50;48.30;;;;;;5055872;28;20433;-91
2022/05/04 01:06:20;;;;;;;1.87;1.77;;;19.50;48.30;;;;;;5056072;28;20212;-91
2022/05/04 01:08:47;;;;;;;1.60;1.50;;;19.50;48.30;;;;;;5056473;28;20178;-91
2022/05/04 01:11:12;;;;;;;1.60;1.50;;;19.50;48.30;;;;;;5018192;28;20892;-91
2022/05/04 01:13:38;;;;;;;1.50;1.40;;;19.50;48.30;;;;;;5055638;28;20171;-91
2022/05/04 01:16:04;;;;;;;1.70;1.60;;;19.50;48.30;;;;;;5056059;28;20241;-91
2022/05/04 01:18:30;;;;;;;1.50;1.40;;;19.50;48.30;;;;;;5055952;28;20181;-91
2022/05/04 01:20:55;;;;;;;1.50;1.40;;;19.50;48.30;;;;;;5055069;28;20591;-92
2022/05/04 01:23:22;;;;;;;2.27;1.50;;;19.40;48.30;;;;;;5055508;28;20175;-92
2022/05/04 01:25:50;;;;;;;2.13;1.53;;;19.40;48.30;;;;;;5053839;28;20173;-91
2022/05/04 01:28:15;;;;;;;1.73;1.40;;;19.40;48.30;;;;;;5055554;28;20180;-91
2022/05/04 01:30:41;;;;;;;1.87;1.67;;;19.40;48.30;;;;;;5056551;28;20561;-92
2022/05/04 01:33:06;;;;;;;1.80;1.47;;;19.40;48.30;;;;;;5056205;28;20572;-92
2022/05/04 01:35:32;;;;;;;1.40;1.30;;;19.40;48.40;;;;;;5055363;28;20248;-91
2022/05/04 01:37:58;;;;;;;1.63;1.53;;;19.40;48.30;;;;;;5055622;28;20269;-91
2022/05/04 01:40:24;;;;;;;1.33;1.23;;;19.40;48.40;;;;;;5057358;28;20427;-92
2022/05/04 01:42:49;;;;;;;1.60;1.50;;;19.30;48.30;;;;;;5054942;28;20207;-91
2022/05/04 01:45:15;;;;;;;1.67;1.40;;;19.30;48.30;;;;;;5054886;28;20183;-92
2022/05/04 01:47:41;;;;;;;2.20;1.40;;;19.30;48.30;;;;;;5082443;22;20259;-76
2022/05/04 01:50:06;;;;;;;1.53;1.43;;;19.30;48.30;;;;;;5077728;28;20217;-76
2022/05/04 01:52:32;;;;;;;1.50;1.40;;;19.30;48.30;;;;;;5078733;28;20193;-76
2022/05/04 01:55:05;;;;;;;1.90;1.70;;;19.30;48.40;;;;;;5078046;28;20628;-75
2022/05/04 01:57:31;;;;;;;2.30;1.50;;;19.30;48.30;;;;;;5077786;28;20179;-76
2022/05/04 01:59:57;;;;;;;1.40;1.30;;;19.30;48.80;;;;;;5077557;28;20187;-75
2022/05/04 02:02:23;;;;;;;1.60;1.50;;;19.20;48.30;;;;;;5077654;28;20206;-76
2022/05/04 02:04:50;;;;;;;1.70;1.60;;;19.20;48.30;;;;;;5078983;28;20171;-75
2022/05/04 02:07:16;;;;;;;1.83;1.70;;;19.20;48.30;;;;;;5077176;28;20328;-75
2022/05/04 02:09:42;;;;;;;1.80;1.60;;;19.20;48.30;;;;;;5076046;28;20269;-76
2022/05/04 02:12:08;;;;;;;1.50;1.40;;;19.20;48.70;;;;;;5077457;28;20193;-76
2022/05/04 02:14:33;;;;;;;1.30;1.20;;;19.20;48.30;;;;;;5078459;28;20190;-76
2022/05/04 02:17:00;;;;;;;1.60;1.50;;;19.20;48.30;;;;;;5078235;28;20506;-76
2022/05/04 02:19:25;;;;;;;1.67;1.43;;;19.20;48.30;;;;;;5078455;28;20210;-76
2022/05/04 02:21:51;;;;;;;1.30;1.20;;;19.20;48.30;;;;;;5077924;28;20244;-75
2022/05/04 02:24:17;;;;;;;1.90;1.50;;;19.10;48.30;;;;;;5077786;28;20324;-75
2022/05/04 02:26:43;;;;;;;1.53;1.40;;;19.10;48.20;;;;;;5077900;28;20200;-75
2022/05/04 02:29:08;;;;;;;1.70;1.50;;;19.10;48.30;;;;;;5077401;28;20570;-76
2022/05/04 02:31:34;;;;;;;1.60;1.50;;;19.10;48.30;;;;;;5077395;28;20281;-76
2022/05/04 02:34:00;;;;;;;1.53;1.40;;;19.10;48.30;;;;;;5076868;28;20183;-75
2022/05/04 02:39:09;;;;;;;1.50;1.40;;;19.00;48.20;;;;;;5078666;28;20223;-76
2022/05/04 02:41:35;;;;;;;1.50;1.33;;;19.00;48.20;;;;;;5077699;28;20234;-76
2022/05/04 02:44:03;;;;;;;1.60;1.40;;;19.00;48.20;;;;;;5078213;28;20182;-76
2022/05/04 02:46:30;;;;;;;1.50;1.30;;;19.00;48.20;;;;;;5077939;28;20171;-76
2022/05/04 02:48:57;;;;;;;1.40;1.30;;;19.00;48.20;;;;;;5078213;28;20173;-76
2022/05/04 02:51:23;;;;;;;1.60;1.40;;;19.00;48.20;;;;;;5077495;28;20177;-76
2022/05/04 02:53:48;;;;;;;1.20;1.10;;;19.00;48.30;;;;;;5077566;28;20177;-76
2022/05/04 02:56:23;;;;;;;1.57;1.20;;;19.00;48.30;;;;;;5077877;28;20183;-76
2022/05/04 02:58:53;;;;;;;1.40;1.30;;;19.00;48.30;;;;;;5076974;28;20210;-76
2022/05/04 03:04:10;;;;;;;1.30;1.20;;;19.00;48.30;;;;;;5077983;28;20227;-77
2022/05/04 03:06:40;;;;;;;1.50;1.40;;;18.90;48.30;;;;;;5076830;28;20634;-76
2022/05/04 03:09:08;;;;;;;1.30;1.20;;;18.90;48.30;;;;;;5077128;28;20233;-76
2022/05/04 03:14:20;;;;;;;1.73;1.30;;;18.90;48.40;;;;;;5076273;28;20228;-76
2022/05/04 03:16:48;;;;;;;2.47;1.40;;;18.90;48.40;;;;;;5076437;28;20182;-76
2022/05/04 03:19:16;;;;;;;1.40;1.23;;;18.80;48.80;;;;;;5076170;28;20183;-76
2022/05/04 03:21:45;;;;;;;1.50;1.30;;;18.80;48.30;;;;;;5075278;28;20203;-76
2022/05/04 03:24:10;;;;;;;1.40;1.30;;;18.80;48.30;;;;;;5077067;28;20323;-76
2022/05/04 03:26:36;;;;;;;1.30;1.20;;;18.80;48.40;;;;;;5076930;28;20294;-76
2022/05/04 03:29:06;;;;;;;1.50;1.40;;;18.80;48.40;;;;;;5076922;28;20233;-76
2022/05/04 03:31:31;;;;;;;1.60;1.40;;;18.80;48.40;;;;;;5076974;28;20175;-76
2022/05/04 03:33:57;;;;;;;1.40;1.30;;;18.80;48.40;;;;;;5077567;28;20245;-76
2022/05/04 03:36:23;;;;;;;1.47;1.33;;;18.80;48.40;;;;;;5077491;28;20206;-76
2022/05/04 03:38:48;;;;;;;1.40;1.30;;;18.80;48.40;;;;;;5077345;28;20270;-76
2022/05/04 03:41:21;;;;;;;1.40;1.30;;;18.70;48.40;;;;;;5076816;28;20203;-76
2022/05/04 03:43:47;;;;;;;1.47;1.37;;;18.70;48.40;;;;;;5077056;28;20174;-76
2022/05/04 03:46:15;;;;;;;1.40;1.30;;;18.70;48.40;;;;;;5076961;28;20275;-76
2022/05/04 03:48:41;;;;;;;1.27;1.17;;;18.70;48.40;;;;;;5076346;28;20198;-77
2022/05/04 03:51:07;;;;;;;2.00;1.47;;;18.70;48.40;;;;;;5077467;28;20179;-76
2022/05/04 03:53:33;;;;;;;1.33;1.23;;;18.70;48.40;;;;;;5080989;28;20176;-76
2022/05/04 03:55:58;;;;;;;1.57;1.30;;;18.70;48.40;;;;;;5076304;28;20673;-76
2022/05/04 03:58:24;;;;;;;1.57;1.47;;;18.70;48.40;;;;;;5077217;28;20177;-76
2022/05/04 04:00:51;;;;;;;1.77;1.20;;;18.70;48.50;;;;;;5076875;28;20582;-76
2022/05/04 04:03:17;;;;;;;1.90;1.30;;;18.60;48.40;;;;;;5076616;28;20206;-76
2022/05/04 04:05:42;;;;;;;1.43;1.33;;;18.60;48.40;;;;;;5075345;28;20202;-76
2022/05/04 04:08:08;;;;;;;1.77;1.30;;;18.60;48.50;;;;;;5076114;28;20375;-76
2022/05/04 04:10:34;;;;;;;1.30;1.20;;;18.60;48.40;;;;;;5076941;28;20493;-76
2022/05/04 04:12:59;;;;;;;1.27;1.10;;;18.60;48.40;;;;;;5077542;28;20282;-76
2022/05/04 04:15:25;;;;;;;1.30;1.20;;;18.60;48.50;;;;;;5074668;28;20257;-76
2022/05/04 04:17:51;;;;;;;1.20;1.10;;;18.60;48.50;;;;;;5075793;28;20723;-76
2022/05/04 04:23:01;;;;;;;1.40;1.30;;;18.60;48.50;;;;;;5075036;28;20190;-76
2022/05/04 04:25:27;;;;;;;1.27;1.17;;;18.50;48.50;;;;;;5074524;28;20461;-76
2022/05/04 04:27:53;;;;;;;2.07;1.23;;;18.50;48.40;;;;;;5077176;28;20186;-76
2022/05/04 04:30:18;;;;;;;1.93;1.13;;;18.50;48.90;;;;;;5076002;28;20186;-76
2022/05/04 04:32:44;;;;;;;1.33;1.23;;;18.50;48.50;;;;;;5092820;28;20214;-75
2022/05/04 04:35:10;;;;;;;1.30;1.20;;;18.50;48.40;;;;;;5092610;28;20182;-76
2022/05/04 04:37:41;;;;;;;1.30;1.20;;;18.50;48.40;;;;;;5093163;28;20282;-76
2022/05/04 04:40:07;;;;;;;1.50;1.13;;;18.50;48.40;;;;;;5092909;28;20235;-76
2022/05/04 04:42:33;;;;;;;1.30;1.20;;;18.50;48.40;;;;;;5076168;28;20179;-76
2022/05/04 04:44:59;;;;;;;1.37;1.27;;;18.50;48.40;;;;;;5076262;28;20173;-76
2022/05/04 04:47:25;;;;;;;1.70;1.20;;;18.50;48.40;;;;;;5092065;28;20201;-76
2022/05/04 04:49:54;;;;;;;1.73;1.30;;;18.50;48.40;;;;;;5092995;28;20223;-76
2022/05/04 04:52:20;;;;;;;1.30;1.20;;;18.50;48.40;;;;;;5092223;28;20203;-76
2022/05/04 04:54:46;;;;;;;1.30;1.20;;;18.50;48.40;;;;;;5075230;28;20229;-76
2022/05/04 04:57:11;;;;;;;1.43;1.10;;;18.50;48.30;;;;;;5076146;28;20232;-76
2022/05/04 04:59:37;;;;;;;1.20;1.10;;;18.60;48.40;;;;;;5092303;28;20467;-76
2022/05/04 05:02:03;;;;;;;2.30;1.40;;;18.60;48.30;;;;;;5088305;22;20238;-76
2022/05/04 05:04:29;;;;;;;1.30;1.10;;;18.60;48.30;;;;;;5078948;28;20171;-76
2022/05/04 05:06:54;;;;;;;1.33;1.17;;;18.60;48.30;;;;;;5078835;28;20175;-77
2022/05/04 05:09:20;;;;;;;1.20;1.10;;;18.60;48.30;;;;;;5078565;28;20715;-77
2022/05/04 05:11:45;;;;;;;1.37;1.27;;;18.60;48.20;;;;;;5077600;28;20214;-76
2022/05/04 05:16:55;;;;;;;2.33;1.23;;;18.60;48.20;;;;;;5078661;28;20190;-76
2022/05/04 05:19:20;;;;;;;1.30;1.20;;;18.60;48.10;;;;;;5077228;28;20587;-76
2022/05/04 05:21:46;;;;;;;2.47;1.20;;;18.70;48.10;;;;;;5084804;28;20179;-75
2022/05/04 05:24:12;;;;;;;1.53;1.30;;;18.70;48.10;;;;;;5098117;28;20272;-76
2022/05/04 05:26:37;;;;;;;1.20;1.13;;;18.70;48.00;;;;;;5097679;28;20167;-75
2022/05/04 05:29:03;;;;;;;1.50;1.20;;;18.80;48.00;;;;;;5097917;28;20259;-76
2022/05/04 05:31:29;;;;;;;1.57;1.20;;;18.80;47.90;;;;;;5097258;28;20201;-76
2022/05/04 05:33:54;;;;;;;2.70;1.20;;;18.80;47.90;;;;;;5097226;28;20222;-76
2022/05/04 05:36:20;;;;;;;1.83;1.13;;;18.80;47.80;;;;;;5096199;28;20178;-76
2022/05/04 05:38:46;;;;;;;2.87;2.03;;;18.90;47.80;;;;;;5096669;28;20174;-76
2022/05/04 05:41:11;;;;;;;1.20;1.10;;;18.90;47.70;;;;;;5096192;28;20186;-74
2022/05/04 05:43:37;;;;;;;2.00;1.30;;;18.90;47.70;;;;;;5094360;28;20181;-76
2022/05/04 05:46:03;;;;;;;1.20;1.10;;;19.00;47.70;;;;;;5066586;28;20186;-75
2022/05/04 05:48:28;;;;;;;1.20;1.10;;;19.00;47.60;;;;;;5056721;28;20183;-75
2022/05/04 05:50:54;;;;;;;1.43;1.20;;;19.00;47.60;;;;;;5056159;28;20729;-76
2022/05/04 05:53:22;;;;;;;1.37;1.20;;;19.10;47.60;;;;;;5054760;28;20209;-75
2022/05/04 05:55:49;;;;;;;2.60;1.40;;;19.10;47.50;;;;;;5055244;28;20226;-76
2022/05/04 05:58:14;;;;;;;1.20;1.07;;;19.10;47.50;;;;;;5055616;28;20524;-76
2022/05/04 06:00:40;;;;;;;1.50;1.30;;;19.20;47.50;;;;;;5054486;28;20212;-76
2022/05/04 06:03:05;;;;;;;1.53;1.17;;;19.20;47.50;;;;;;5054443;28;20179;-76
2022/05/04 06:05:31;;;;;;;2.10;1.30;;;19.20;47.40;;;;;;5053000;28;20709;-76
2022/05/04 06:07:57;;;;;;;1.83;1.40;;;19.20;47.20;;;;;;5054289;28;20175;-75
2022/05/04 06:10:23;;;;;;;1.43;1.10;;;19.30;47.10;;;;;;5053589;28;20612;-75
2022/05/04 06:12:49;;;;;;;1.47;1.20;;;19.30;47.10;;;;;;5052751;28;20205;-75
2022/05/04 06:15:14;;;;;;;1.73;1.27;;;19.30;47.00;;;;;;5053642;28;20168;-75
2022/05/04 06:17:41;;;;;;;1.77;1.30;;;19.40;47.00;;;;;;5056205;28;20168;-76
2022/05/04 06:20:07;;;;;;;1.27;1.17;;;19.40;47.00;;;;;;5054514;28;20278;-75
2022/05/04 06:22:33;;;;;;;1.70;1.43;;;19.40;47.00;;;;;;5053252;28;20179;-76
2022/05/04 06:24:59;;;;;;;1.73;1.17;;;19.50;47.00;;;;;;5053880;28;20495;-76
2022/05/04 06:27:25;;;;;;;1.00;0.90;;;19.60;47.00;;;;;;5053236;28;20241;-76
2022/05/04 06:35:20;;;;;;;2.83;1.50;;;19.70;48.00;;;;;;5055796;28;20172;-75
2022/05/04 06:37:45;;;;;;;1.10;1.00;;;19.80;48.00;;;;;;5063898;28;20178;-75
2022/05/04 06:40:11;;;;;;;2.93;1.40;;;19.80;47.60;;;;;;5074632;28;20176;-75
2022/05/04 06:42:37;;;;;;;2.27;1.40;;;19.90;47.60;;;;;;5074892;28;20620;-74
2022/05/04 06:45:04;;;;;;;2.40;1.40;;;20.00;48.00;;;;;;5075595;28;20707;-74
2022/05/04 06:47:30;;;;;;;3.43;1.40;;;20.10;47.70;;;;;;5075059;28;20212;-74
2022/05/04 06:49:55;;;;;;;1.63;1.30;;;20.30;47.80;;;;;;5073960;28;20177;-73
2022/05/04 06:52:24;;;;;;;3.53;1.60;;;20.60;47.60;;;;;;5074554;28;20211;-74
2022/05/04 06:54:50;;;;;;;3.50;1.70;;;20.70;47.10;;;;;;5075559;28;20215;-74
2022/05/04 06:57:15;;;;;;;3.30;1.33;;;20.80;47.00;;;;;;5074629;28;20171;-74
2022/05/04 06:59:42;;;;;;;3.20;1.60;;;20.90;47.00;;;;;;5070893;28;20171;-73
2022/05/04 07:02:07;;;;;;;3.10;1.53;;;21.00;47.10;;;;;;5068504;28;20198;-74
2022/05/04 07:04:33;;;;;;;2.87;1.67;;;21.00;46.90;;;;;;5069723;28;20171;-74
2022/05/04 07:06:59;;;;;;;2.90;1.50;;;21.10;46.90;;;;;;5069780;28;20167;-73
2022/05/04 07:09:25;;;;;;;3.93;1.77;;;21.10;46.80;;;;;;5068755;28;20172;-74
2022/05/04 07:11:50;;;;;;;2.70;1.57;;;21.20;47.00;;;;;;5069218;28;20245;-74
2022/05/04 07:14:16;;;;;;;4.70;1.60;;;21.20;46.60;;;;;;5068303;28;20310;-74
2022/05/04 07:16:42;;;;;;;4.47;1.70;;;21.30;46.50;;;;;;5069737;28;20172;-74
2022/05/04 07:19:08;;;;;;;3.80;1.93;;;21.30;46.40;;;;;;5067540;28;20249;-74
2022/05/04 07:21:33;;;;;;;4.37;1.70;;;21.40;46.40;;;;;;5067068;28;20559;-74
2022/05/04 07:23:59;;;;;;;2.40;1.60;;;21.40;46.40;;;;;;5067603;28;20537;-74
2022/05/04 07:26:24;;;;;;;5.60;1.80;;;21.50;46.50;;;;;;5068315;28;20272;-74
2022/05/04 07:28:51;;;;;;;4.37;1.80;;;21.50;46.30;;;;;;5068271;28;20214;-74
2022/05/04 07:31:17;;;;;;;5.57;1.60;;;21.50;46.60;;;;;;5070270;28;20199;-74
2022/05/04 07:33:46;;;;;;;3.87;1.83;;;21.60;46.40;;;;;;5079948;28;20199;-74
2022/05/04 07:36:15;;;;;;;13.23;2.00;;;21.60;46.40;;;;;;5078124;28;20662;-74
2022/05/04 07:38:41;;;;;;;5.67;2.00;;;21.70;46.30;;;;;;5086888;28;20175;-74
2022/05/04 07:43:51;;;;;;;6.93;2.10;;;21.80;46.40;;;;;;5084204;28;20231;-74
2022/05/04 07:46:17;;;;;;;3.60;1.80;;;21.90;46.30;;;;;;5094443;28;20179;-74
2022/05/04 07:48:45;;;;;;;3.40;1.80;;;21.90;46.30;;;;;;5081601;28;20238;-75
2022/05/04 07:51:13;;;;;;;4.73;2.07;;;22.00;46.20;;;;;;5053704;28;20214;-74
2022/05/04 07:53:40;;;;;;;4.53;2.03;;;22.10;46.30;;;;;;5068681;28;20522;-74
2022/05/04 07:56:06;;;;;;;6.67;2.00;;;22.20;46.20;;;;;;5074363;28;20569;-74
2022/05/04 07:58:32;;;;;;;7.80;2.10;;;22.20;45.90;;;;;;5073678;28;20179;-74
2022/05/04 08:06:27;;;;;;;8.20;2.23;;;22.40;45.90;;;;;;5072933;28;20520;-74
2022/05/04 08:08:53;;;;;;;4.23;2.00;;;22.50;45.70;;;;;;5071605;28;20236;-74
2022/05/04 08:11:19;;;;;;;3.23;1.83;;;22.50;45.50;;;;;;5072719;28;20211;-75
2022/05/04 08:13:45;;;;;;;3.63;2.10;;;22.60;45.30;;;;;;5071195;28;20175;-75
2022/05/04 08:16:11;;;;;;;6.53;2.00;;;22.70;45.20;;;;;;5067034;28;20643;-75
2022/05/04 08:18:40;;;;;;;4.93;2.20;;;22.70;45.30;;;;;;5069689;28;20765;-75
2022/05/04 08:21:09;;;;;;;4.50;2.40;;;22.30;45.60;;;;;;5072837;28;20179;-73
2022/05/04 08:23:34;;;;;;;4.47;2.20;;;22.10;46.00;;;;;;5073414;28;20237;-75
2022/05/04 08:26:01;;;;;;;3.67;2.07;;;22.00;46.40;;;;;;5072791;28;20180;-75
2022/05/04 08:28:33;;;;;;;4.57;2.40;;;21.90;46.40;;;;;;5073849;28;20182;-75
2022/05/04 08:30:59;;;;;;;7.33;2.20;;;22.10;46.60;;;;;;5073338;28;20237;-75
2022/05/04 08:33:24;;;;;;;5.50;2.53;;;22.40;46.00;;;;;;5073929;28;20786;-75
2022/05/04 08:35:50;;;;;;;5.17;2.57;;;22.70;45.50;;;;;;5072401;28;20460;-75
2022/05/04 08:38:16;;;;;;;3.37;2.10;;;23.00;45.20;;;;;;5071949;28;20187;-75
2022/05/04 08:40:45;;;;;;;4.63;2.60;;;23.10;45.00;;;;;;5071962;28;20312;-74
2022/05/04 08:43:12;;;;;;;4.87;2.30;;;23.20;44.90;;;;;;5071488;28;20182;-75
2022/05/04 08:45:39;;;;;;;4.33;2.30;;;23.30;44.70;;;;;;5072087;28;20231;-75
2022/05/04 08:48:08;;;;;;;5.50;2.60;;;23.40;44.60;;;;;;5070401;28;20552;-75
2022/05/04 08:50:35;;;;;;;6.73;2.23;;;23.40;45.00;;;;;;5072268;28;20210;-75
2022/05/04 08:53:02;;;;;;;7.43;2.30;;;23.40;44.60;;;;;;5072595;28;20243;-75
2022/05/04 08:55:28;;;;;;;7.73;2.50;;;23.50;44.60;;;;;;5070683;28;20172;-75
2022/05/04 08:57:54;;;;;;;6.43;2.67;;;23.50;44.70;;;;;;5072639;28;20164;-76
2022/05/04 09:00:20;;;;;;;5.00;2.17;;;23.60;44.70;;;;;;5071662;28;20164;-75
2022/05/04 09:02:47;;;;;;;7.88;2.90;;;23.60;44.60;;;;;;5071249;28;20175;-75
2022/05/04 09:05:23;;;;;;;5.97;2.25;;;23.70;44.60;;;;;;5075790;28;20178;-75
2022/05/04 09:07:52;;;;;;;6.32;2.58;;;23.70;44.40;;;;;;5096809;28;20218;-75
2022/05/04 09:10:36;;;;;;;6.85;2.50;;;23.80;44.40;;;;;;5098387;28;20197;-75
2022/05/04 09:13:03;;;;;;;6.18;2.60;;;23.80;44.30;;;;;;5096350;28;20477;-75
2022/05/04 09:15:36;;;;;;;6.65;2.28;;;23.80;44.40;;;;;;5096473;28;20270;-74
2022/05/04 09:18:13;;;;;;;5.70;2.33;;;23.50;44.60;;;;;;5097136;28;20179;-75
2022/05/04 09:23:25;;;;;;;10.10;2.50;;;23.30;45.10;;;;;;5092763;28;20421;-75
2022/05/04 09:25:52;;;;;;;6.37;2.17;;;23.50;44.80;;;;;;5091505;28;20182;-75
2022/05/04 09:28:26;;;;;;;5.75;2.50;;;23.50;44.70;;;;;;5072568;28;20269;-75
2022/05/04 09:30:54;;;;;;;5.83;2.50;;;23.50;44.60;;;;;;5073285;28;20204;-75
2022/05/04 09:33:28;;;;;;;7.40;2.80;;;23.50;44.70;;;;;;5053121;28;20624;-75
2022/05/04 09:35:56;;;;;;;4.72;2.40;;;23.40;44.90;;;;;;5051382;28;20168;-75
2022/05/04 09:46:47;;;;;;;5.07;2.57;;;22.90;45.40;;;;;;5050337;28;20183;-75
2022/05/04 09:49:17;;;;;;;5.97;2.47;;;22.70;45.70;;;;;;5066532;28;20183;-75
2022/05/04 09:51:49;;;;;;;4.93;2.53;;;22.60;45.90;;;;;;5049576;28;20272;-75
2022/05/04 09:54:31;;;;;;;6.47;2.87;;;22.50;46.00;;;;;;5065714;28;20229;-75
2022/05/04 09:57:05;;;;;;;4.13;2.53;;;22.40;46.30;;;;;;5050338;28;20180;-73
2022/05/04 09:59:33;;;;;;;6.40;2.60;;;22.40;46.40;;;;;;5049868;28;20186;-75
2022/05/04 10:02:00;;;;;;;7.30;2.60;;;22.40;46.50;;;;;;5066054;28;20192;-75
2022/05/04 10:04:28;;;;;;;6.13;2.77;;;22.40;46.60;;;;;;5066744;28;20223;-75
2022/05/04 10:06:54;;;;;;;5.60;2.63;;;22.40;46.60;;;;;;5066380;28;20208;-75
2022/05/04 10:09:22;;;;;;;4.70;3.03;;;22.30;46.50;;;;;;5065942;28;20199;-75
2022/05/04 10:11:59;;;;;;;8.80;2.67;;;22.30;46.60;;;;;;5055920;28;20227;-75
2022/05/04 10:14:30;;;;;;;6.43;2.63;;;22.40;46.70;;;;;;5073838;28;20175;-76
2022/05/04 10:17:02;;;;;;;5.23;2.87;;;22.30;46.60;;;;;;5072682;28;20180;-75
2022/05/04 10:19:39;;;;;;;7.57;3.20;;;22.30;46.60;;;;;;5049630;28;20493;-75
2022/05/04 10:22:10;;;;;;;4.10;2.70;;;22.30;46.70;;;;;;5049911;28;20238;-75
2022/05/04 10:24:38;;;;;;;5.63;2.70;;;22.30;46.80;;;;;;5049672;28;20176;-75
2022/05/04 10:27:21;;;;;;;5.90;3.03;;;22.30;46.80;;;;;;5048330;28;20718;-75
2022/05/04 10:32:43;;;;;;;7.50;3.50;;;22.30;47.00;;;;;;5087421;28;20214;-75
2022/05/04 10:35:20;;;;;;;5.73;2.90;;;22.30;47.10;;;;;;5095615;28;20178;-75
2022/05/04 10:37:52;;;;;;;4.77;3.00;;;22.30;47.10;;;;;;5095568;28;20187;-74
2022/05/04 10:40:24;;;;;;;7.27;3.57;;;22.30;47.10;;;;;;5089268;28;20163;-73
2022/05/04 10:42:57;;;;;;;5.17;3.07;;;22.30;47.10;;;;;;5088513;28;20224;-73
2022/05/04 10:45:37;;;;;;;4.87;3.30;;;22.30;47.20;;;;;;5086020;28;20171;-75
2022/05/04 10:48:14;;;;;;;5.00;3.13;;;22.20;47.20;;;;;;5088405;28;20193;-75
2022/05/04 10:50:59;;;;;;;6.50;3.07;;;22.20;47.40;;;;;;5088343;28;20182;-75
2022/05/04 10:53:30;;;;;;;6.23;2.93;;;22.20;47.40;;;;;;5090910;28;20702;-75
2022/05/04 10:56:07;;;;;;;9.90;3.40;;;22.20;47.50;;;;;;5094193;28;20178;-75
2022/05/04 10:58:50;;;;;;;6.23;3.87;;;22.10;47.60;;;;;;5090942;28;20173;-75
2022/05/04 11:01:24;;;;;;;6.83;3.30;;;22.10;47.60;;;;;;5087652;28;20190;-75
2022/05/04 11:04:14;;;;;;;8.17;3.60;;;22.10;47.60;;;;;;5088051;28;20186;-75
2022/05/04 11:07:00;;;;;;;6.30;3.50;;;22.10;47.60;;;;;;5086854;28;20170;-75
2022/05/04 11:09:31;;;;;;;5.73;3.50;;;22.10;47.60;;;;;;5074518;28;20239;-75
2022/05/04 11:12:00;;;;;;;6.47;3.90;;;22.10;47.60;;;;;;5086908;28;20474;-75
2022/05/04 11:14:26;;;;;;;8.03;3.70;;;22.10;47.70;;;;;;5085821;28;20651;-75
2022/05/04 11:16:54;;;;;;;9.33;3.90;;;22.10;47.70;;;;;;5086279;28;20177;-75
2022/05/04 11:19:27;;;;;;;6.50;3.80;;;22.10;47.70;;;;;;5085522;28;20166;-75
2022/05/04 11:21:54;;;;;;;5.10;3.07;;;22.20;47.60;;;;;;5054042;28;20240;-75
2022/05/04 11:24:20;;;;;;;6.53;3.37;;;22.20;47.60;;;;;;5053000;28;20207;-75
2022/05/04 11:26:55;;;;;;;7.00;3.30;;;22.20;47.50;;;;;;5052335;28;20230;-75
2022/05/04 11:29:23;;;;;;;7.03;3.97;;;22.20;47.60;;;;;;5051826;28;20173;-75
2022/05/04 11:31:54;;;;;;;6.13;3.50;;;22.20;47.60;;;;;;5047291;28;20745;-75
2022/05/04 11:34:22;;;;;;;5.60;4.00;;;22.20;47.60;;;;;;5046671;28;20181;-75
2022/05/04 11:36:49;;;;;;;6.47;3.90;;;22.10;47.60;;;;;;5048621;28;20185;-75
2022/05/04 11:39:20;;;;;;;4.33;3.30;;;22.20;48.10;;;;;;5048050;28;20202;-75
2022/05/04 11:41:55;;;;;;;6.03;3.90;;;22.20;47.70;;;;;;5086763;28;20558;-75
2022/05/04 11:44:29;;;;;;;6.00;3.53;;;22.20;47.70;;;;;;5092660;28;20184;-75
2022/05/04 11:46:59;;;;;;;4.57;3.30;;;22.10;47.60;;;;;;5089904;28;20177;-75
2022/05/04 11:49:26;;;;;;;4.13;3.37;;;22.20;47.70;;;;;;5086487;28;20179;-75
2022/05/04 11:51:54;;;;;;;5.70;3.40;;;22.20;47.60;;;;;;5087039;28;20220;-75
2022/05/04 11:54:20;;;;;;;6.30;3.53;;;22.20;47.70;;;;;;5078301;28;20179;-74
2022/05/04 11:56:45;;;;;;;5.83;3.70;;;22.20;47.70;;;;;;5067617;28;20174;-75
2022/05/04 11:59:11;;;;;;;6.37;3.97;;;22.20;47.70;;;;;;5066796;28;20588;-75
2022/05/04 12:01:38;;;;;;;5.17;3.80;;;22.20;47.70;;;;;;5065692;28;20387;-75
2022/05/04 12:04:05;;;;;;;6.07;3.50;;;22.20;47.70;;;;;;5065454;28;20216;-75
2022/05/04 12:06:32;;;;;;;5.97;3.90;;;22.10;47.70;;;;;;5070009;28;20564;-75
2022/05/04 12:08:58;;;;;;;6.33;3.70;;;22.10;47.70;;;;;;5072344;28;20498;-75
2022/05/04 12:11:28;;;;;;;7.83;3.77;;;22.20;47.80;;;;;;5075619;28;20185;-75
2022/05/04 12:13:56;;;;;;;5.40;3.70;;;22.20;47.80;;;;;;5073066;28;20196;-75
2022/05/04 12:16:23;;;;;;;5.53;3.40;;;22.20;47.80;;;;;;5083321;28;20269;-75
2022/05/04 12:18:49;;;;;;;5.13;3.47;;;22.20;47.80;;;;;;5076988;28;20181;-73
2022/05/04 12:21:22;;;;;;;5.40;3.63;;;22.20;47.80;;;;;;5069832;28;20173;-75
2022/05/04 12:23:53;;;;;;;6.90;3.80;;;22.20;47.90;;;;;;5070589;28;20478;-75
2022/05/04 12:26:21;;;;;;;6.63;3.90;;;22.20;47.90;;;;;;5072103;28;20174;-75
2022/05/04 12:34:23;;;;;;;6.50;3.70;;;22.20;48.00;;;;;;5051816;28;20235;-75
2022/05/04 12:36:50;;;;;;;4.97;3.70;;;22.20;47.90;;;;;;5047616;28;20184;-75
2022/05/04 12:39:16;;;;;;;5.50;3.80;;;22.20;48.00;;;;;;5049442;28;20301;-74
2022/05/04 12:41:44;;;;;;;6.23;4.00;;;22.20;48.00;;;;;;5048245;28;20588;-75
2022/05/04 12:44:10;;;;;;;5.97;4.30;;;22.20;48.00;;;;;;5049094;28;20187;-75
2022/05/04 12:46:37;;;;;;;4.97;3.70;;;22.20;48.10;;;;;;5049121;28;20275;-73
2022/05/04 12:49:03;;;;;;;4.37;3.50;;;22.20;48.10;;;;;;5070806;28;20182;-74
2022/05/04 12:51:38;;;;;;;5.13;3.60;;;22.20;48.00;;;;;;5075261;28;20182;-75
2022/05/04 12:54:04;;;;;;;6.33;3.70;;;22.20;48.10;;;;;;5075105;28;20197;-75
2022/05/04 12:56:48;;;;;;;5.40;4.00;;;22.20;48.00;;;;;;5075072;28;20177;-74
2022/05/04 12:59:18;;;;;;;4.87;3.93;;;22.20;48.00;;;;;;5072840;28;20193;-74
2022/05/04 13:01:44;;;;;;;5.73;4.00;;;22.30;48.10;;;;;;5073400;28;20276;-75
2022/05/04 13:04:12;;;;;;;6.60;4.30;;;22.30;48.00;;;;;;5073972;28;20172;-75
2022/05/04 13:06:38;;;;;;;4.77;3.70;;;22.30;48.00;;;;;;5074130;28;20586;-75
2022/05/04 13:09:06;;;;;;;4.77;3.57;;;22.30;48.00;;;;;;5073841;28;20195;-75
2022/05/04 13:11:34;;;;;;;6.13;3.93;;;22.30;48.00;;;;;;5073579;28;20293;-75
2022/05/04 13:14:03;;;;;;;4.60;3.80;;;22.30;48.00;;;;;;5076489;28;20198;-76
2022/05/04 13:16:28;;;;;;;5.00;3.73;;;22.30;48.00;;;;;;5074808;28;20264;-75
2022/05/04 13:18:54;;;;;;;4.60;3.93;;;22.30;48.10;;;;;;5072911;28;20297;-75
2022/05/04 13:21:21;;;;;;;6.50;3.50;;;22.30;48.00;;;;;;5072892;28;20176;-75
2022/05/04 13:23:47;;;;;;;7.90;3.87;;;22.30;48.10;;;;;;5073172;28;20582;-75
2022/05/04 13:26:14;;;;;;;6.50;3.83;;;22.30;48.00;;;;;;5074039;28;20245;-75
2022/05/04 13:28:40;;;;;;;5.13;3.70;;;22.30;48.00;;;;;;5073305;28;20266;-75
2022/05/04 13:31:06;;;;;;;5.43;4.10;;;22.30;48.00;;;;;;5075434;28;20662;-74
2022/05/04 13:33:34;;;;;;;5.60;4.10;;;22.40;48.00;;;;;;5074513;28;20247;-74
2022/05/04 13:36:00;;;;;;;6.07;3.80;;;22.40;48.00;;;;;;5074047;28;20183;-76